Nearby METAR Reports

 

KOXC - Oxford/Waterbury, Connecticut, USA
Distance from station: SE 8mi, 12km
Updated: Mon, 20-Jan-2020 9:51pm EST
Clear
Clear
 Wind from NNW
Wind: NNW 12 mph , 19 km/h
Temperature: 18°F , -8°C
Wind Chill: 5°F , -15°C
Dew Point: -0°F , -18°C
Humidity: 45%
Barometer: 30.31 inHg , 1026.4 hPa
Clouds: Clear
Visibility: 10 miles , 16 km
2020/01/21 02:51 KOXC 210251Z AUTO 34010KT 10SM CLR M08/M18 A3031 RMK AO2 SLP289 T10831183 50003 FZRANO
KDXR - Danbury, Connecticut, USA
Distance from station: SW 19mi, 30km
Updated: Mon, 20-Jan-2020 9:53pm EST
Clear
Clear
 Wind from varies
Wind: varies 3 mph , 6 km/h
Temperature: 18°F , -8°C
Dew Point: -6°F , -21°C
Humidity: 35%
Barometer: 30.35 inHg , 1027.8 hPa
Clouds: Clear
Visibility: 10 miles , 16 km
2020/01/21 02:53 KDXR 210253Z VRB03KT 10SM CLR M08/M21 A3035 RMK AO2 SLP284 T10831206 50004
 
KMMK - Meriden, Connecticut, USA
Distance from station: E 20mi, 33km
Updated: Mon, 20-Jan-2020 9:53pm EST
Clear
Clear
 Wind from W
Wind: W 6 mph , 9 km/h
Temperature: 18°F , -8°C
Wind Chill: 10°F , -12°C
Dew Point: -0°F , -18°C
Humidity: 45%
Barometer: 30.35 inHg , 1027.8 hPa
Clouds: Clear
Visibility: 10 miles , 16 km
2020/01/21 02:53 KMMK 210253Z AUTO 28005KT 10SM CLR M08/M18 A3035 RMK AO2 SLP281 T10781183 50006
KBDR - Bridgeport, Connecticut, USA
Distance from station: S 27mi, 44km
Updated: Mon, 20-Jan-2020 9:52pm EST
Clear
Clear
 Wind from N
Wind: N 6 mph , 9 km/h
Temperature: 21°F , -6°C
Wind Chill: 13°F , -11°C
Dew Point: -2°F , -19°C
Humidity: 35%
Barometer: 30.36 inHg , 1028.1 hPa
Clouds: Clear
Visibility: 10 miles , 16 km
2020/01/21 02:52 KBDR 210252Z 35005KT 10SM CLR M06/M19 A3036 RMK AO2 SLP282 T10561194 50005
 
KHVN - New Haven/Tweed, Connecticut, USA
Distance from station: SE 27mi, 44km
Updated: Mon, 20-Jan-2020 9:53pm EST
Clear
Clear
 Wind from NNW
Wind: NNW 9 mph , 15 km/h
Temperature: 21°F , -6°C
Wind Chill: 11°F , -12°C
Dew Point: -0°F , -18°C
Humidity: 38%
Barometer: 30.34 inHg , 1027.4 hPa
Clouds: Clear
Visibility: 10 miles , 16 km
2020/01/21 02:53 KHVN 210253Z 34008KT 10SM CLR M06/M18 A3034 RMK AO2 SLP275 T10561183 50003
KHFD - Hartford/Brainar, Connecticut, USA
Distance from station: ENE 32mi, 52km
Updated: Mon, 20-Jan-2020 9:53pm EST
Clear
Clear
 Wind from NNW
Wind: NNW 3 mph , 6 km/h
Temperature: 19°F , -7°C
Dew Point: -0°F , -18°C
Humidity: 42%
Barometer: 30.36 inHg , 1028.1 hPa
Clouds: Clear
Visibility: 10 miles , 16 km
2020/01/21 02:53 KHFD 210253Z 33003KT 10SM CLR M07/M18 A3036 RMK AO2 SLP282 T10721183 51007
 
KPOU - Poughkeepsie, New York, USA
Distance from station: W 35mi, 56km
Updated: Mon, 20-Jan-2020 9:53pm EST
Clear
Clear
 Wind from calm
Wind: Calm
Temperature: 16°F , -9°C
Dew Point: -0°F , -18°C
Humidity: 48%
Barometer: 30.38 inHg , 1028.8 hPa
Clouds: Clear
Visibility: 10 miles , 16 km
2020/01/21 02:53 KPOU 210253Z AUTO 00000KT 10SM CLR M09/M18 A3038 RMK AO2 SLP288 T10891178 50008
KBDL - Windsor Locks, Connecticut, USA
Distance from station: NE 38mi, 62km
Updated: Mon, 20-Jan-2020 9:51pm EST
Clear
Clear
 Wind from NNW
Wind: NNW 5 mph , 7 km/h
Temperature: 16°F , -9°C
Wind Chill: 8°F , -13°C
Dew Point: -2°F , -19°C
Humidity: 45%
Barometer: 30.35 inHg , 1027.8 hPa
Clouds: Clear
Visibility: 10 miles , 16 km
2020/01/21 02:51 KBDL 210251Z 33004KT 10SM CLR M09/M19 A3035 RMK AO2 SLP278 T10891189 51005
 
KSNC - Chester, Connecticut, USA
Distance from station: ESE 39mi, 63km
Updated: Mon, 20-Jan-2020 10:15pm EST
Clear
Clear
 Wind from NNW
Wind: NNW 10 mph , 17 km/h, Gust: 16 mph , 26 km/h
Temperature: 18°F , -8°C
Wind Chill: 6°F , -14°C
Dew Point: -2°F , -19°C
Humidity: 41%
Barometer: 30.31 inHg , 1026.4 hPa
Clouds: Clear
Visibility: 10 miles , 16 km
2020/01/21 03:15 KSNC 210315Z AUTO 33009G14KT 10SM CLR M08/M19 A3031 RMK AO2
KHPN - White Plains, New York, USA
Distance from station: SW 42mi, 67km
Updated: Mon, 20-Jan-2020 9:56pm EST
Clear
Clear
 Wind from NNW
Wind: NNW 9 mph , 15 km/h
Temperature: 21°F , -6°C
Wind Chill: 11°F , -12°C
Dew Point: -0°F , -18°C
Humidity: 38%
Barometer: 30.33 inHg , 1027.1 hPa
Clouds: Clear
Visibility: 10 miles , 16 km
2020/01/21 02:56 KHPN 210256Z 33008KT 10SM CLR M06/M18 A3033 RMK SLP283
 
KSWF - Newburgh/Stewart, New York, USA
Distance from station: W 45mi, 72km
Updated: Mon, 20-Jan-2020 9:45pm EST
Clear
Clear
 Wind from NW
Wind: NW 12 mph , 19 km/h
Temperature: 18°F , -8°C
Wind Chill: 5°F , -15°C
Dew Point: 3°F , -16°C
Humidity: 53%
Barometer: 30.36 inHg , 1028.1 hPa
Clouds: Clear
Visibility: 10 miles , 16 km
2020/01/21 02:45 KSWF 210245Z 31010KT 10SM SKC M08/M16 A3036
KBAF - Westfield, Massachusetts, USA
Distance from station: NNE 50mi, 80km
Updated: Mon, 20-Jan-2020 9:53pm EST
Clear
Clear
 Wind from NNW
Wind: NNW 7 mph , 11 km/h
Temperature: 16°F , -9°C
Wind Chill: 6°F , -14°C
Dew Point: -2°F , -19°C
Humidity: 45%
Barometer: 30.33 inHg , 1027.1 hPa
Clouds: Clear
Visibility: 10 miles , 16 km
2020/01/21 02:53 KBAF 210253Z 33006KT 10SM CLR M09/M19 A3033 RMK AO2 SLP281 T10941189 50004